Utsunomiya, Japan

9:22 AM JST on September 17, 2014 (GMT +0900)
Hyakuri Aero | Change Station
CLOSE
Current Station
Airport
Location: Hyakuri AB,
Elevation: 115 ft
Nearby Weather Stations

Elev 115 ft 36.18 °N, 140.41 °E | Updated 14 minutes ago

Mostly Cloudy
Mostly Cloudy
72 °F
Feels Like 72 °F
N
10
Wind Variable Wind from ENE

Today
High -- | Low -- °F
--% Chance of Precip.
Yesterday
High -- | Low -- °F
Precip. -- in
5:23 AM 5:45 PM
Last Quarter, 41% visible
Pressure 29.95 in
Visibility 6.2 miles
Clouds Few 2000 ft
Mostly Cloudy 5000 ft
Mostly Cloudy 21000 ft
Dew Point 61 °F
Humidity 69%
Rainfall 0.00 in
Snow Depth Not available.
UV 3 out of 12
Pollen Not available.
Air Quality Not available.
Flu Activity Not available.
SPECI RJAH 170008Z 06009KT 9999 FEW020 BKN050 BKN210 22/16 Q1014 RMK 1CU020 5SC050 A2997

More Conditions Fewer Conditions

Pressure 29.95 in
Visibility 6.2 miles
Clouds Few 2000 ft
Mostly Cloudy 5000 ft
Mostly Cloudy 21000 ft
Dew Point 61 °F
Humidity 69%
Rainfall 0.00 in
Snow Depth Not available.
UV 3 out of 12
Pollen Not available.
Air Quality Not available.
Flu Activity Not available.
SPECI RJAH 170008Z 06009KT 9999 FEW020 BKN050 BKN210 22/16 Q1014 RMK 1CU020 5SC050 A2997

More Conditions Fewer Conditions

10-Day Weather Forecast

Almanac

Astronomy

Sep. 17, 2014 Rise Set
Actual Time 5:23 AM JST 5:45 PM JST
Civil Twilight 4:58 AM JST 6:11 PM JST
Nautical Twilight 4:27 AM JST 6:41 PM JST
Astronomical Twilight 3:56 AM JST 7:12 PM JST
Moon 11:50 PM JST 1:19 PM JST
Length of Visible Light 13h 13m
Length of Day
12h 21m
Tomorrow will be 2m 18s shorter.
Last Quarter, 41% of the Moon is Illuminated
Sep 16
Last Quarter
Sep 24
New
Oct 1
First Quarter
Oct 8
Full
Oct 15
Last Quarter

Yesterday's Extremes

Country Highs Country Lows

Community

WunderPhotos

Upload Photos

1,753,931 photos uploaded!

Nearby

Snow Depth

Not available.

Earthquake Activity

City Distance Mag. Time & Date
No recent earthquake activity has been reported nearby.
Minimum magnitude displayed is 2.5.

Coastal Water Temperatures

Place Temperature
No Stations Reporting

Nearby Weather Stations